Time;durP1;ratioP1;P1;durP2;ratioP2;P2;SDS_P1;SDS_P2;PMS_P1;PMS_P2;Temp;Humidity;BMP_temperature;BMP_pressure;BME280_temperature;BME280_humidity;BME280_pressure;Samples;Min_cycle;Max_cycle;Signal;HPM_P1;HPM_P2
2022/10/23 00:01:31;;;;;;;5.18;3.90;;;;;;;7.29;74.28;96785.59;5113492;28;20477;-65
2022/10/23 00:04:01;;;;;;;8.15;4.80;;;;;;;7.22;75.20;96782.22;5113203;28;20134;-60
2022/10/23 00:06:31;;;;;;;8.02;5.07;;;;;;;7.26;75.20;96778.72;5113396;28;20050;-62
2022/10/23 00:08:58;;;;;;;11.40;5.30;;;;;;;7.36;74.80;96776.75;5113452;28;20421;-62
2022/10/23 00:11:28;;;;;;;7.43;4.53;;;;;;;7.31;74.60;96760.38;5113658;28;20126;-67
2022/10/23 00:13:58;;;;;;;7.38;4.30;;;;;;;7.29;74.67;96769.97;5113068;28;20047;-68
2022/10/23 00:16:27;;;;;;;7.05;4.55;;;;;;;7.25;75.25;96765.72;5113420;28;20058;-66
2022/10/23 00:18:55;;;;;;;13.80;4.78;;;;;;;7.24;75.18;96761.38;5117236;28;20606;-64
2022/10/23 00:21:23;;;;;;;6.05;4.68;;;;;;;7.28;74.89;96763.91;5116903;28;20048;-60
2022/10/23 00:23:50;;;;;;;7.03;4.57;;;;;;;7.28;74.68;96757.81;5117360;28;20048;-64
2022/10/23 00:26:17;;;;;;;8.30;4.78;;;;;;;7.28;74.84;96757.81;5117188;28;20090;-63
2022/10/23 00:28:47;;;;;;;6.82;4.90;;;;;;;7.20;75.18;96753.63;5117008;28;20135;-67
2022/10/23 00:31:15;;;;;;;7.82;4.93;;;;;;;7.10;75.35;96746.09;5116925;28;20485;-69
2022/10/23 00:33:44;;;;;;;8.65;4.82;;;;;;;7.13;75.60;96749.47;5116953;28;20119;-65
2022/10/23 00:36:15;;;;;;;8.32;5.10;;;;;;;7.14;75.30;96750.31;5116831;28;20425;-63
2022/10/23 00:38:42;;;;;;;6.40;4.72;;;;;;;7.01;76.46;96752.34;5116858;28;20489;-63
2022/10/23 00:41:16;;;;;;;7.88;5.22;;;;;;;7.05;76.53;96746.19;5116802;28;20086;-61
2022/10/23 00:43:59;;;;;;;8.07;5.18;;;;;;;7.11;76.20;96733.03;5116783;28;20047;-65
2022/10/23 00:46:27;;;;;;;6.97;5.10;;;;;;;7.14;76.22;96739.91;5116849;28;20116;-67
2022/10/23 00:48:56;;;;;;;8.68;5.30;;;;;;;7.18;75.89;96745.03;5116764;28;20083;-66
2022/10/23 00:51:24;;;;;;;7.53;4.27;;;;;;;7.22;75.38;96739.75;5116630;28;20134;-64
2022/10/23 00:53:58;;;;;;;7.40;4.90;;;;;;;7.27;75.20;96733.56;5116553;28;20101;-63
2022/10/23 00:56:26;;;;;;;7.60;4.93;;;;;;;7.29;75.49;96734.38;5116494;28;20044;-66
2022/10/23 00:58:54;;;;;;;7.50;5.38;;;;;;;7.28;75.83;96729.19;5116418;28;20408;-66
2022/10/23 01:01:23;;;;;;;12.27;5.45;;;;;;;7.24;75.68;96723.22;5116407;28;20078;-65
2022/10/23 01:03:52;;;;;;;9.02;5.10;;;;;;;7.28;75.93;96734.41;5116505;28;20153;-62
2022/10/23 01:06:33;;;;;;;13.85;5.03;;;;;;;7.32;76.30;96717.84;5116404;28;20047;-66
2022/10/23 01:09:09;;;;;;;8.23;4.75;;;;;;;7.35;75.85;96716.91;5116332;28;20039;-65
2022/10/23 01:11:40;;;;;;;8.00;4.60;;;;;;;7.35;76.18;96724.72;5116712;28;20048;-65
2022/10/23 01:14:17;;;;;;;9.65;5.60;;;;;;;7.39;75.99;96745.44;5116396;28;20138;-63
2022/10/23 01:16:54;;;;;;;9.60;5.03;;;;;;;7.44;76.11;96741.00;5116129;28;20040;-64
2022/10/23 01:19:27;;;;;;;8.73;5.47;;;;;;;7.45;75.93;96737.50;5115982;28;20493;-63
2022/10/23 01:22:06;;;;;;;6.18;4.60;;;;;;;7.49;76.10;96732.25;5115889;28;20043;-65
2022/10/23 01:24:47;;;;;;;9.00;5.28;;;;;;;7.44;76.43;96741.00;5115918;28;20054;-65
2022/10/23 01:27:22;;;;;;;8.57;4.68;;;;;;;7.44;77.11;96714.13;5115881;28;20130;-67
2022/10/23 01:29:59;;;;;;;7.38;4.72;;;;;;;7.42;77.08;96719.38;5114894;28;20066;-63
2022/10/23 01:32:34;;;;;;;9.90;5.05;;;;;;;7.43;77.06;96725.41;5115864;28;20044;-66
2022/10/23 01:35:05;;;;;;;10.35;5.32;;;;;;;7.41;77.49;96722.84;5115710;28;20472;-66
2022/10/23 01:37:40;;;;;;;13.27;5.20;;;;;;;7.40;77.79;96720.25;5115802;28;20055;-63
2022/10/23 01:40:14;;;;;;;7.95;5.10;;;;;;;7.45;77.57;96726.22;5116029;28;20401;-68
2022/10/23 01:42:48;;;;;;;6.35;5.07;;;;;;;7.46;77.89;96725.34;5115779;28;20047;-63
2022/10/23 01:45:22;;;;;;;7.72;5.05;;;;;;;7.50;77.82;96723.53;5115564;28;20112;-64
2022/10/23 01:47:51;;;;;;;7.03;4.75;;;;;;;7.59;77.55;96729.38;5115538;28;20043;-63
2022/10/23 01:50:20;;;;;;;6.40;4.30;;;;;;;7.63;77.50;96730.16;5115636;28;20101;-64
2022/10/23 01:52:47;;;;;;;14.15;4.70;;;;;;;7.74;77.29;96727.31;5115363;28;20079;-63
2022/10/23 01:55:15;;;;;;;11.35;5.45;;;;;;;7.81;77.06;96718.47;5115248;28;20104;-62
2022/10/23 01:57:46;;;;;;;10.45;5.78;;;;;;;7.87;77.06;96722.66;5115366;28;20048;-64
2022/10/23 02:00:16;;;;;;;6.30;4.22;;;;;;;7.92;76.50;96733.81;5115445;28;20043;-64
2022/10/23 02:02:46;;;;;;;7.90;5.22;;;;;;;7.96;76.11;96724.19;5115357;28;20070;-60
2022/10/23 02:05:17;;;;;;;9.30;5.25;;;;;;;7.94;76.46;96732.03;5115203;28;20058;-63
2022/10/23 02:07:45;;;;;;;7.18;4.35;;;;;;;7.97;76.63;96731.97;5115097;28;20044;-64
2022/10/23 02:10:14;;;;;;;7.28;4.90;;;;;;;7.96;76.45;96729.41;5115143;28;20064;-68
2022/10/23 02:12:50;;;;;;;8.38;5.32;;;;;;;8.03;76.29;96728.34;5115222;28;20131;-66
2022/10/23 02:15:25;;;;;;;9.65;5.03;;;;;;;8.05;76.08;96730.91;5114888;28;20090;-63
2022/10/23 02:18:03;;;;;;;7.40;4.78;;;;;;;8.07;76.43;96735.19;5114929;28;20051;-62
2022/10/23 02:20:37;;;;;;;7.72;5.18;;;;;;;8.04;76.54;96731.81;5114747;28;20058;-69
2022/10/23 02:23:15;;;;;;;5.88;4.35;;;;;;;7.97;76.77;96731.97;5114848;28;20050;-60
2022/10/23 02:25:49;;;;;;;7.93;4.80;;;;;;;7.94;77.10;96736.38;5114893;28;20086;-67
2022/10/23 02:28:23;;;;;;;5.05;4.35;;;;;;;7.92;77.12;96727.78;5114711;28;20074;-69
2022/10/23 02:30:51;;;;;;;6.43;4.30;;;;;;;7.92;77.20;96741.63;5114667;28;20455;-64
2022/10/23 02:33:19;;;;;;;9.23;5.00;;;;;;;7.91;77.84;96745.13;5114667;28;20047;-61
2022/10/23 02:35:48;;;;;;;8.55;5.10;;;;;;;7.96;77.44;96743.28;5114567;28;20409;-62
2022/10/23 02:38:32;;;;;;;6.63;4.78;;;;;;;7.96;77.85;96748.50;5114614;28;20047;-64
2022/10/23 02:41:08;;;;;;;7.32;4.90;;;;;;;7.96;77.94;96740.69;5114184;28;20048;-68
2022/10/23 02:43:44;;;;;;;7.43;4.75;;;;;;;8.00;78.05;96749.28;5114200;28;20131;-65
2022/10/23 02:46:20;;;;;;;6.85;4.82;;;;;;;8.02;77.86;96752.69;5114403;28;20047;-63
2022/10/23 02:48:55;;;;;;;6.53;4.35;;;;;;;7.99;78.15;96746.69;5114501;28;20074;-66
2022/10/23 02:51:34;;;;;;;11.48;5.28;;;;;;;8.04;77.96;96745.69;5114362;28;20440;-66
2022/10/23 02:54:06;;;;;;;6.85;4.82;;;;;;;8.00;78.50;96754.47;5114647;28;20065;-65
2022/10/23 02:56:40;;;;;;;6.90;5.05;;;;;;;8.02;78.80;96755.31;5114136;28;20047;-61
2022/10/23 02:59:16;;;;;;;8.27;5.30;;;;;;;8.03;79.27;96753.53;5114343;28;20044;-66
2022/10/23 03:01:50;;;;;;;6.65;4.85;;;;;;;8.06;78.99;96762.16;5114326;28;20039;-64
2022/10/23 03:04:21;;;;;;;7.57;5.13;;;;;;;8.06;79.46;96772.56;5114062;28;20047;-64
2022/10/23 03:06:50;;;;;;;7.53;4.85;;;;;;;8.01;79.16;96763.16;5114180;28;20105;-67
2022/10/23 03:09:19;;;;;;;8.30;4.72;;;;;;;8.03;79.49;96777.00;5113972;28;20070;-67
2022/10/23 03:11:46;;;;;;;11.90;4.95;;;;;;;8.08;79.47;96768.19;5114003;28;20047;-66
2022/10/23 03:14:15;;;;;;;7.40;5.15;;;;;;;8.12;79.85;96774.16;5113934;28;20047;-67
2022/10/23 03:16:43;;;;;;;7.32;5.22;;;;;;;8.14;79.58;96769.78;5113827;28;20469;-66
2022/10/23 03:19:11;;;;;;;7.47;5.05;;;;;;;8.19;79.50;96778.34;5113770;28;20040;-62
2022/10/23 03:21:39;;;;;;;12.32;4.90;;;;;;;8.26;79.62;96776.44;5113674;28;20050;-65
2022/10/23 03:24:07;;;;;;;9.60;4.72;;;;;;;8.34;79.63;96778.88;5113740;28;20126;-67
2022/10/23 03:26:35;;;;;;;7.80;5.10;;;;;;;8.38;79.20;96777.03;5113782;28;20047;-62
2022/10/23 03:29:03;;;;;;;14.43;5.35;;;;;;;8.40;78.94;96781.28;5113998;28;20059;-66
2022/10/23 03:31:33;;;;;;;9.88;4.68;;;;;;;8.45;79.04;96781.19;5113589;28;20039;-63
2022/10/23 03:34:00;;;;;;;4.67;3.50;;;;;;;8.43;78.72;96783.00;5113568;28;20481;-69
2022/10/23 03:36:27;;;;;;;8.77;4.43;;;;;;;8.45;78.30;96787.25;5113532;28;20653;-66
2022/10/23 03:38:55;;;;;;;6.55;4.68;;;;;;;8.49;78.33;96792.41;5113582;28;20105;-63
2022/10/23 03:41:22;;;;;;;8.43;4.80;;;;;;;8.54;78.75;96800.97;5113680;28;20066;-66
2022/10/23 03:43:49;;;;;;;8.70;4.45;;;;;;;8.62;79.07;96800.78;5113598;28;20131;-67
2022/10/23 03:46:17;;;;;;;8.50;5.22;;;;;;;8.68;79.04;96792.81;5113747;28;20051;-63
2022/10/23 03:48:46;;;;;;;8.63;4.20;;;;;;;8.83;78.33;96788.94;5113649;28;20089;-64
2022/10/23 03:51:13;;;;;;;10.38;3.58;;;;;;;9.31;72.08;96782.38;5113557;28;20131;-63
2022/10/23 03:53:40;;;;;;;3.72;2.40;;;;;;;10.17;66.66;96773.72;5117749;28;20457;-59
2022/10/23 03:56:07;;;;;;;6.43;2.60;;;;;;;10.89;65.66;96776.56;5117748;28;20529;-67
2022/10/23 03:58:34;;;;;;;5.68;2.42;;;;;;;11.28;61.73;96773.38;5117692;28;20135;-61
2022/10/23 04:01:01;;;;;;;7.90;2.40;;;;;;;12.05;57.13;96771.34;5117549;28;20044;-62
2022/10/23 04:03:28;;;;;;;5.40;2.65;;;;;;;12.76;54.53;96778.06;5117435;28;20048;-60
2022/10/23 04:05:57;;;;;;;11.95;2.90;;;;;;;13.17;54.59;96778.06;5117985;28;20044;-66
2022/10/23 04:08:24;;;;;;;7.45;2.58;;;;;;;13.47;53.15;96777.63;5117546;28;20048;-64
2022/10/23 04:10:51;;;;;;;7.85;2.70;;;;;;;13.79;52.03;96780.56;5117764;28;20440;-64
2022/10/23 04:13:18;;;;;;;5.88;2.78;;;;;;;14.00;50.05;96778.66;5117350;28;20048;-67
2022/10/23 04:15:49;;;;;;;3.83;2.63;;;;;;;14.30;49.22;96774.59;5117206;28;20079;-67
2022/10/23 04:18:17;;;;;;;5.00;2.65;;;;;;;14.52;47.96;96782.31;5117297;28;20128;-61
2022/10/23 04:20:47;;;;;;;6.43;2.67;;;;;;;14.67;47.66;96785.09;5117134;28;20051;-64
2022/10/23 04:23:17;;;;;;;4.88;2.10;;;;;;;14.74;48.11;96785.63;5117207;28;20511;-65
2022/10/23 04:25:44;;;;;;;7.20;2.22;;;;;;;14.73;46.65;96786.56;5117142;28;20052;-63
2022/10/23 04:28:14;;;;;;;4.18;2.25;;;;;;;14.84;46.94;96781.63;5117004;28;20043;-59
2022/10/23 04:30:42;;;;;;;6.47;2.38;;;;;;;14.84;47.25;96776.34;5116982;28;20075;-66
2022/10/23 04:33:09;;;;;;;4.00;2.75;;;;;;;14.78;47.29;96789.84;5117053;28;20051;-65
2022/10/23 04:35:37;;;;;;;4.57;2.75;;;;;;;14.75;47.74;96785.53;5117087;28;20044;-66
2022/10/23 04:38:04;;;;;;;3.22;2.10;;;;;;;14.68;47.52;96793.81;5116912;28;20078;-62
2022/10/23 04:40:33;;;;;;;4.47;2.53;;;;;;;14.56;48.51;96797.94;5117200;27;20044;-65
2022/10/23 04:43:00;;;;;;;3.75;2.30;;;;;;;14.43;49.26;96795.94;5116921;28;20047;-63
2022/10/23 04:45:27;;;;;;;2.92;2.03;;;;;;;14.29;49.05;96799.22;5116826;27;20047;-60
2022/10/23 04:47:55;;;;;;;3.65;1.98;;;;;;;14.40;47.61;96809.22;5116839;28;20078;-63
2022/10/23 04:50:23;;;;;;;9.05;2.55;;;;;;;14.52;47.23;96806.00;5116554;28;20599;-65
2022/10/23 04:52:54;;;;;;;4.97;2.22;;;;;;;14.71;47.16;96812.97;5116612;28;20123;-65
2022/10/23 04:55:24;;;;;;;5.53;1.90;;;;;;;14.81;47.06;96804.63;5116494;28;20500;-67
2022/10/23 04:57:53;;;;;;;3.47;2.00;;;;;;;14.97;46.53;96809.97;5116398;27;20054;-61
2022/10/23 05:00:20;;;;;;;3.75;2.10;;;;;;;14.99;47.23;96810.75;5116507;28;20047;-60
2022/10/23 05:02:47;;;;;;;4.57;2.72;;;;;;;15.05;45.73;96812.22;5116405;28;20051;-60
2022/10/23 05:05:15;;;;;;;3.90;2.17;;;;;;;15.17;46.46;96824.72;5116348;28;20131;-63
2022/10/23 05:07:42;;;;;;;5.43;2.33;;;;;;;15.22;46.08;96819.22;5116347;27;20142;-64
2022/10/23 05:10:10;;;;;;;5.13;2.30;;;;;;;15.28;45.77;96822.41;5116357;28;20082;-62
2022/10/23 05:12:38;;;;;;;3.85;2.42;;;;;;;15.40;45.81;96823.53;5116339;28;20443;-61
2022/10/23 05:15:08;;;;;;;5.55;2.45;;;;;;;15.56;46.03;96827.13;5116280;28;20047;-66
2022/10/23 05:17:40;;;;;;;8.40;2.80;;;;;;;15.65;45.42;96834.53;5116158;28;20063;-66
2022/10/23 05:20:12;;;;;;;8.88;2.78;;;;;;;16.00;45.52;96841.47;5115799;28;20513;-62
2022/10/23 05:22:42;;;;;;;4.63;2.53;;;;;;;16.77;43.25;96853.91;5116100;28;20054;-63
2022/10/23 05:25:11;;;;;;;7.43;2.50;;;;;;;17.64;41.70;96847.94;5116125;28;20051;-65
2022/10/23 05:27:38;;;;;;;3.95;2.10;;;;;;;18.58;40.13;96850.03;5116020;28;20552;-68
2022/10/23 05:30:08;;;;;;;8.05;2.40;;;;;;;19.36;38.97;96847.53;5116051;27;20047;-64
2022/10/23 05:32:37;;;;;;;4.22;2.22;;;;;;;20.15;37.27;96857.13;5116005;28;20047;-66
2022/10/23 05:35:08;;;;;;;7.80;2.22;;;;;;;20.91;35.73;96850.75;5115822;28;20040;-65
2022/10/23 05:37:38;;;;;;;5.80;2.78;;;;;;;21.61;34.91;96847.25;5115739;28;20160;-67
2022/10/23 05:40:07;;;;;;;3.03;1.98;;;;;;;22.40;34.07;96846.38;5115755;28;20088;-60
2022/10/23 05:42:34;;;;;;;6.35;2.40;;;;;;;23.39;32.63;96843.66;5115700;28;20051;-63
2022/10/23 05:45:02;;;;;;;6.43;2.28;;;;;;;24.07;31.93;96843.09;5115623;28;20048;-65
2022/10/23 05:47:31;;;;;;;7.03;2.78;;;;;;;24.81;30.87;96849.97;5115384;28;20051;-67
2022/10/23 05:49:58;;;;;;;5.72;2.58;;;;;;;25.60;29.39;96857.94;5115606;28;20056;-62
2022/10/23 05:52:26;;;;;;;8.52;2.72;;;;;;;26.46;28.30;96860.53;5115504;28;20048;-65
2022/10/23 05:54:53;;;;;;;4.43;2.80;;;;;;;27.03;27.47;96861.25;5115428;28;20444;-68
2022/10/23 05:57:20;;;;;;;5.13;2.78;;;;;;;27.55;26.64;96864.97;5115364;28;20050;-66
2022/10/23 05:59:49;;;;;;;6.00;2.97;;;;;;;27.34;26.66;96859.00;5115268;28;20047;-62
2022/10/23 06:02:17;;;;;;;9.07;2.70;;;;;;;27.67;26.98;96857.53;5115263;28;20417;-64
2022/10/23 06:04:46;;;;;;;3.42;2.42;;;;;;;27.95;26.16;96868.06;5114716;28;20047;-65
2022/10/23 06:07:13;;;;;;;4.40;2.30;;;;;;;28.56;25.47;96881.44;5115087;28;20051;-63
2022/10/23 06:09:41;;;;;;;3.78;2.10;;;;;;;28.70;25.73;96876.41;5115148;28;20051;-64
2022/10/23 06:12:08;;;;;;;2.92;2.28;;;;;;;28.99;24.65;96878.66;5115218;28;20079;-66
2022/10/23 06:14:35;;;;;;;7.88;2.53;;;;;;;29.23;24.39;96893.13;5114584;27;20078;-65
2022/10/23 06:17:03;;;;;;;4.50;2.10;;;;;;;29.87;23.56;96896.13;5114892;28;20043;-64
2022/10/23 06:19:30;;;;;;;4.43;2.33;;;;;;;30.42;24.38;96890.03;5114925;28;20531;-65
2022/10/23 06:21:59;;;;;;;3.40;2.30;;;;;;;30.98;22.33;96889.06;5114796;28;20056;-66
2022/10/23 06:24:26;;;;;;;3.63;1.83;;;;;;;31.00;22.79;96901.34;5115085;28;20476;-66
2022/10/23 06:26:54;;;;;;;8.35;3.15;;;;;;;31.36;23.03;96899.09;5114779;28;20137;-65
2022/10/23 06:29:21;;;;;;;4.50;2.40;;;;;;;30.57;23.56;96903.59;5114600;28;20047;-66
2022/10/23 06:31:48;;;;;;;7.25;2.20;;;;;;;30.95;23.47;96902.91;5114757;27;20093;-66
2022/10/23 06:34:16;;;;;;;4.13;2.55;;;;;;;31.13;23.77;96908.88;5114703;28;20130;-66
2022/10/23 06:36:43;;;;;;;2.67;2.00;;;;;;;31.76;21.84;96923.19;5114439;28;20055;-67
2022/10/23 06:39:12;;;;;;;6.28;1.90;;;;;;;31.96;22.33;96920.81;5114693;28;20048;-62
2022/10/23 06:41:40;;;;;;;6.13;2.47;;;;;;;32.83;21.84;96909.44;5114479;28;20554;-66
2022/10/23 06:44:09;;;;;;;4.05;2.05;;;;;;;33.51;21.61;96918.22;5114484;28;20536;-68
2022/10/23 06:46:36;;;;;;;6.00;2.00;;;;;;;33.18;20.96;96913.34;5114420;28;20043;-63
2022/10/23 06:49:05;;;;;;;3.45;1.67;;;;;;;32.24;22.29;96928.25;5114419;28;20055;-63
2022/10/23 06:51:33;;;;;;;4.95;2.03;;;;;;;31.92;21.94;96921.34;5114330;28;20040;-66
2022/10/23 06:54:01;;;;;;;4.07;1.58;;;;;;;31.82;22.30;96916.22;5114278;28;20052;-63
2022/10/23 06:56:30;;;;;;;3.97;2.38;;;;;;;31.71;22.67;96917.50;5114082;28;20043;-65
2022/10/23 06:58:57;;;;;;;5.57;1.80;;;;;;;31.91;21.99;96925.91;5114284;28;20044;-66
2022/10/23 07:01:25;;;;;;;2.90;2.15;;;;;;;32.76;21.71;96930.19;5114287;28;20051;-63
2022/10/23 07:03:53;;;;;;;3.75;2.00;;;;;;;33.69;20.77;96928.59;5114059;28;20433;-66
2022/10/23 07:06:21;;;;;;;3.58;2.38;;;;;;;34.20;20.59;96944.81;5114123;28;20442;-67
2022/10/23 07:08:49;;;;;;;4.68;2.20;;;;;;;34.40;19.75;96934.06;5113908;28;20147;-66
2022/10/23 07:11:16;;;;;;;2.72;1.70;;;;;;;34.04;20.15;96930.50;5114038;28;20051;-61
2022/10/23 07:13:46;;;;;;;3.80;2.10;;;;;;;33.76;20.45;96932.19;5114056;28;20048;-61
2022/10/23 07:16:16;;;;;;;3.05;2.05;;;;;;;33.61;20.91;96939.56;5113868;28;20477;-66
2022/10/23 07:18:43;;;;;;;8.70;2.10;;;;;;;34.37;20.31;96938.00;5113894;28;20099;-63
2022/10/23 07:21:11;;;;;;;2.45;1.58;;;;;;;34.51;20.25;96951.63;5113613;28;20043;-63
2022/10/23 07:23:39;;;;;;;2.67;1.60;;;;;;;34.58;20.22;96949.78;5113933;28;20489;-64
2022/10/23 07:26:08;;;;;;;3.25;1.90;;;;;;;34.36;20.39;96939.06;5113265;28;20051;-62
2022/10/23 07:28:36;;;;;;;4.07;1.63;;;;;;;34.77;20.03;96940.09;5113748;28;20055;-64
2022/10/23 07:31:05;;;;;;;2.45;1.80;;;;;;;34.63;20.32;96944.59;5113664;28;20083;-67
2022/10/23 07:33:33;;;;;;;3.60;1.60;;;;;;;34.28;20.16;96940.06;5113759;28;20454;-61
2022/10/23 07:36:01;;;;;;;7.10;2.00;;;;;;;34.44;20.28;96937.19;5113692;28;20126;-61
2022/10/23 07:38:28;;;;;;;27.75;5.05;;;;;;;34.60;20.60;96933.28;5113562;28;20058;-64
2022/10/23 07:40:58;;;;;;;3.38;1.48;;;;;;;34.10;21.15;96937.00;5113636;28;20040;-66
2022/10/23 07:43:25;;;;;;;1.73;1.45;;;;;;;33.90;20.81;96930.44;5113459;28;20088;-65
2022/10/23 07:45:53;;;;;;;2.65;1.15;;;;;;;32.99;21.00;96921.06;5113597;28;20401;-62
2022/10/23 07:48:22;;;;;;;2.63;1.05;;;;;;;31.55;23.03;96921.19;5113538;28;20101;-67
2022/10/23 07:50:50;;;;;;;4.15;1.63;;;;;;;30.96;24.88;96932.44;5113596;28;20047;-62
2022/10/23 07:53:23;;;;;;;1.35;1.25;;;;;;;29.90;25.04;96930.81;5113431;28;20122;-68
2022/10/23 07:55:54;;;;;;;2.38;1.40;;;;;;;28.93;26.41;96932.31;5113425;28;20043;-65
2022/10/23 07:58:21;;;;;;;3.60;1.00;;;;;;;28.29;27.09;96928.22;5113352;28;20047;-63
2022/10/23 08:00:55;;;;;;;1.17;0.90;;;;;;;27.92;27.92;96932.91;5113531;28;20394;-61
2022/10/23 08:03:23;;;;;;;2.17;0.93;;;;;;;27.58;29.26;96934.50;5113253;28;20043;-62
2022/10/23 08:05:51;;;;;;;1.42;1.02;;;;;;;27.25;29.01;96929.72;5113478;28;20554;-65
2022/10/23 08:08:19;;;;;;;3.00;1.27;;;;;;;26.73;30.26;96937.41;5113434;28;20044;-62
2022/10/23 08:10:47;;;;;;;1.65;1.20;;;;;;;26.85;29.97;96934.53;5113439;28;20048;-63
2022/10/23 08:13:15;;;;;;;1.40;0.80;;;;;;;26.47;29.77;96939.97;5113334;28;20564;-68
2022/10/23 08:15:44;;;;;;;1.25;0.93;;;;;;;26.18;30.62;96935.56;5113238;28;20047;-65
2022/10/23 08:18:11;;;;;;;0.75;0.70;;;;;;;26.03;31.79;96937.91;5113064;28;20047;-65
2022/10/23 08:20:41;;;;;;;1.98;0.60;;;;;;;26.03;30.50;96951.28;5113026;28;20087;-68
2022/10/23 08:23:08;;;;;;;;;;;;;;;26.08;30.36;96957.03;5113537;28;20075;-62
2022/10/23 08:25:37;;;;;;;2.35;0.68;;;;;;;26.06;30.18;96953.66;5113024;28;20105;-64
2022/10/23 08:28:07;;;;;;;1.13;0.65;;;;;;;25.92;31.39;96950.47;5113238;28;20086;-64
2022/10/23 08:30:35;;;;;;;1.38;0.88;;;;;;;25.91;30.53;96942.59;5113063;28;20055;-65
2022/10/23 08:33:03;;;;;;;1.55;0.70;;;;;;;25.51;30.97;96939.09;5113137;28;20039;-64
2022/10/23 08:35:30;;;;;;;0.65;0.50;;;;;;;25.28;32.30;96953.63;5113076;28;20071;-68
2022/10/23 08:37:59;;;;;;;0.65;0.65;;;;;;;25.30;31.75;96932.06;5114080;28;20134;-58
2022/10/23 08:40:26;;;;;;;0.60;0.60;;;;;;;25.28;31.52;96939.44;5116965;28;20086;-61
2022/10/23 08:43:00;;;;;;;0.75;0.60;;;;;;;25.14;32.10;96944.22;5116998;28;20469;-63
2022/10/23 08:45:33;;;;;;;0.85;0.80;;;;;;;25.17;31.62;96943.94;5116727;28;20047;-65
2022/10/23 08:48:06;;;;;;;0.95;0.60;;;;;;;25.21;31.82;96945.34;5116796;28;20044;-64
2022/10/23 08:50:43;;;;;;;2.58;0.77;;;;;;;25.26;32.09;96936.88;5116797;28;20044;-63
2022/10/23 08:53:21;;;;;;;0.52;0.52;;;;;;;25.35;31.93;96940.53;5116525;28;20051;-65
2022/10/23 08:55:56;;;;;;;44.90;1.70;;;;;;;25.48;31.96;96948.28;5116551;28;20047;-64
2022/10/23 08:58:34;;;;;;;0.93;0.70;;;;;;;25.19;31.26;96957.19;5116653;28;20056;-63
2022/10/23 09:01:12;;;;;;;0.95;0.77;;;;;;;24.97;31.80;96935.03;5116468;28;20097;-62
2022/10/23 09:03:40;;;;;;;0.93;0.70;;;;;;;25.00;32.00;96942.78;5116426;28;20047;-67
2022/10/23 09:06:16;;;;;;;0.95;0.82;;;;;;;25.11;31.50;96937.28;5116374;28;20425;-64
2022/10/23 09:08:56;;;;;;;1.30;0.80;;;;;;;25.26;31.52;96931.53;5116606;28;20059;-64
2022/10/23 09:11:30;;;;;;;0.77;0.60;;;;;;;25.40;31.19;96948.16;5116376;28;20489;-66
2022/10/23 09:14:23;;;;;;;1.45;0.70;;;;;;;25.41;31.58;96942.66;5116579;28;20054;-63
2022/10/23 09:17:05;;;;;;;0.75;0.70;;;;;;;25.39;31.30;96949.13;5116237;28;20051;-65
2022/10/23 09:19:33;;;;;;;2.35;0.70;;;;;;;25.46;30.65;96940.38;5116148;28;20051;-63
2022/10/23 09:22:01;;;;;;;0.60;0.60;;;;;;;25.53;30.77;96943.34;5115875;28;20043;-61
2022/10/23 09:24:32;;;;;;;0.68;0.60;;;;;;;25.72;30.92;96947.00;5116096;28;20047;-60
2022/10/23 09:27:00;;;;;;;1.25;0.52;;;;;;;25.83;30.21;96946.81;5116007;28;20071;-64
2022/10/23 09:29:30;;;;;;;3.85;1.50;;;;;;;25.86;30.38;96940.34;5116021;28;20047;-62
2022/10/23 09:32:03;;;;;;;0.60;0.60;;;;;;;25.94;30.03;96932.41;5115826;28;20109;-67
2022/10/23 09:34:33;;;;;;;8.95;2.88;;;;;;;25.92;30.12;96949.63;5115749;28;20400;-65
2022/10/23 09:37:03;;;;;;;0.75;0.60;;;;;;;25.98;29.67;96944.50;5115532;28;20044;-66
2022/10/23 09:39:33;;;;;;;;;;;;;;;25.88;29.32;96943.69;5116346;28;20051;-65
2022/10/23 09:42:02;;;;;;;1.58;0.50;;;;;;;25.79;28.80;96941.91;5115716;28;19920;-64
2022/10/23 09:44:31;;;;;;;2.30;0.55;;;;;;;25.67;28.54;96947.41;5115744;28;20043;-63
2022/10/23 09:47:01;;;;;;;0.45;0.43;;;;;;;25.58;28.53;96940.22;5115618;28;20051;-62
2022/10/23 09:49:31;;;;;;;1.52;0.55;;;;;;;25.54;27.82;96938.81;5114723;28;20048;-61
2022/10/23 09:52:04;;;;;;;3.78;0.60;;;;;;;25.40;27.70;96932.09;5115500;28;20504;-65
2022/10/23 09:54:37;;;;;;;0.43;0.43;;;;;;;25.30;27.40;96948.13;5115454;28;20404;-64
2022/10/23 09:57:22;;;;;;;4.35;0.70;;;;;;;25.08;27.70;96942.91;5115283;28;20100;-64
2022/10/23 09:59:52;;;;;;;0.50;0.45;;;;;;;24.93;27.64;96936.31;5115663;28;20401;-59
2022/10/23 10:02:26;;;;;;;0.47;0.47;;;;;;;24.98;28.22;96928.69;5115363;28;20058;-63
2022/10/23 10:04:54;;;;;;;1.30;0.52;;;;;;;25.09;28.22;96933.94;5115285;28;20481;-64
2022/10/23 10:07:23;;;;;;;0.55;0.45;;;;;;;24.84;28.46;96928.09;5115058;28;20048;-65
2022/10/23 10:09:53;;;;;;;0.77;0.40;;;;;;;24.82;28.02;96926.53;5115250;28;20719;-64
2022/10/23 10:12:46;;;;;;;0.90;0.30;;;;;;;24.80;27.46;96931.22;5115236;28;20545;-66
2022/10/23 10:15:22;;;;;;;3.30;0.57;;;;;;;24.76;27.97;96924.41;5115101;28;20122;-65
2022/10/23 10:17:59;;;;;;;2.97;0.70;;;;;;;24.76;27.86;96927.09;5115070;28;20048;-65
2022/10/23 10:20:48;;;;;;;0.45;0.40;;;;;;;24.85;27.68;96929.81;5114736;28;20044;-65
2022/10/23 10:23:29;;;;;;;0.57;0.50;;;;;;;24.81;27.09;96925.72;5114888;28;20051;-64
2022/10/23 10:26:07;;;;;;;0.50;0.50;;;;;;;24.65;27.03;96920.06;5114906;28;20108;-63
2022/10/23 10:28:59;;;;;;;2.42;0.60;;;;;;;24.68;27.57;96915.28;5114905;28;20049;-64
2022/10/23 10:32:17;;;;;;;1.25;0.70;;;;;;;24.69;27.38;96900.09;5114831;28;20051;-65
2022/10/23 10:34:53;;;;;;;2.85;0.73;;;;;;;24.64;26.72;96911.19;5114614;28;20055;-68
2022/10/23 10:37:36;;;;;;;0.50;0.50;;;;;;;24.44;27.27;96913.81;5114454;28;20055;-65
2022/10/23 10:40:10;;;;;;;4.28;0.73;;;;;;;24.41;27.16;96903.41;5114589;28;20126;-61
2022/10/23 10:43:03;;;;;;;1.83;0.63;;;;;;;24.44;27.90;96908.47;5114570;28;20497;-62
2022/10/23 10:45:34;;;;;;;1.00;0.85;;;;;;;24.25;28.27;96887.88;5114455;28;20109;-63
2022/10/23 10:48:09;;;;;;;;;;;;;;;24.36;27.61;96903.78;5115084;28;20406;-68
2022/10/23 10:50:46;;;;;;;0.45;0.45;;;;;;;24.28;26.91;96900.13;5114767;28;19966;-66
2022/10/23 10:53:23;;;;;;;0.63;0.60;;;;;;;24.06;27.45;96892.16;5114349;28;20044;-64
2022/10/23 10:55:53;;;;;;;0.82;0.68;;;;;;;24.16;27.92;96884.22;5114279;28;20048;-62
2022/10/23 10:58:35;;;;;;;1.08;0.70;;;;;;;24.11;28.54;96889.09;5114080;28;20485;-66
2022/10/23 11:01:11;;;;;;;1.10;0.73;;;;;;;24.17;28.40;96888.56;5114162;28;20059;-59
2022/10/23 11:03:44;;;;;;;0.80;0.80;;;;;;;24.30;28.27;96883.00;5114034;28;20058;-64
2022/10/23 11:06:16;;;;;;;1.30;0.70;;;;;;;24.31;28.58;96881.16;5114153;28;20051;-66
2022/10/23 11:08:44;;;;;;;3.10;0.90;;;;;;;24.36;28.16;96873.56;5114058;28;20087;-65
2022/10/23 11:11:17;;;;;;;1.05;0.70;;;;;;;24.32;27.77;96872.16;5114113;28;20047;-63
2022/10/23 11:13:46;;;;;;;1.25;0.95;;;;;;;24.33;27.89;96868.50;5114112;28;20097;-63
2022/10/23 11:16:18;;;;;;;2.10;1.00;;;;;;;24.40;27.77;96866.09;5113980;28;20048;-66
2022/10/23 11:18:51;;;;;;;0.47;0.47;;;;;;;24.52;27.37;96878.38;5113816;28;20048;-66
2022/10/23 11:21:28;;;;;;;1.52;0.90;;;;;;;24.53;27.33;96881.91;5113906;28;20130;-65
2022/10/23 11:24:27;;;;;;;0.80;0.60;;;;;;;24.39;27.31;96875.13;5114084;28;20059;-62
2022/10/23 11:27:27;;;;;;;0.80;0.80;;;;;;;24.25;28.15;96871.00;5113992;28;20048;-60
2022/10/23 11:30:23;;;;;;;1.85;0.75;;;;;;;24.33;28.09;96868.50;5093348;28;20047;-63
2022/10/23 11:33:32;;;;;;;1.63;0.60;;;;;;;24.32;26.62;96862.31;5088115;28;20044;-63
2022/10/23 11:36:13;;;;;;;0.60;0.60;;;;;;;24.25;26.94;96855.81;5105804;28;20044;-67
2022/10/23 11:38:44;;;;;;;0.80;0.80;;;;;;;24.11;27.35;96854.38;5105709;28;20503;-62
2022/10/23 11:41:20;;;;;;;1.45;1.00;;;;;;;24.15;27.99;96845.13;5092955;28;20051;-60
2022/10/23 11:43:50;;;;;;;0.70;0.60;;;;;;;24.08;27.39;96843.94;5092998;28;20445;-62
2022/10/23 11:46:32;;;;;;;1.33;1.10;;;;;;;24.06;27.55;96841.41;5093850;28;20489;-59
2022/10/23 11:49:01;;;;;;;0.73;0.73;;;;;;;24.01;26.31;96848.13;5093144;28;20044;-60
2022/10/23 11:51:32;;;;;;;0.65;0.60;;;;;;;23.81;27.28;96851.56;5093069;28;20055;-60
2022/10/23 11:54:23;;;;;;;1.25;0.70;;;;;;;23.81;27.22;96854.25;5103382;28;20044;-62
2022/10/23 11:56:55;;;;;;;0.85;0.70;;;;;;;23.75;26.63;96837.91;5112725;28;20493;-58